createdAt,value
2023-02-09T00:04:50.346Z,92.00
2023-02-09T00:09:55.079Z,83.75
2023-02-09T00:14:58.537Z,75.00
2023-02-09T00:20:06.278Z,67.00
2023-02-09T00:25:09.765Z,59.00
2023-02-09T00:30:13.204Z,62.00
2023-02-09T00:35:17.335Z,63.67
2023-02-09T00:40:20.547Z,27.00
2023-02-09T00:45:23.751Z,47.00
2023-02-09T00:50:28.127Z,86.00
2023-02-09T00:55:31.355Z,79.00
2023-02-09T01:00:34.605Z,71.00
2023-02-09T01:05:41.961Z,71.00
2023-02-09T01:10:45.333Z,74.50
2023-02-09T01:15:48.841Z,74.33
2023-02-09T01:20:52.024Z,60.00
2023-02-09T01:26:02.811Z,61.00
2023-02-09T01:31:07.888Z,70.67
2023-02-09T01:36:11.087Z,67.00
2023-02-09T01:41:14.747Z,51.67
2023-02-09T01:46:18.172Z,47.50
2023-02-09T01:51:21.743Z,15.00
2023-02-09T01:56:29.770Z,66.00
2023-02-09T02:01:33.024Z,72.00
2023-02-09T02:06:36.462Z,72.00
2023-02-09T02:11:41.552Z,67.67
2023-02-09T02:16:55.019Z,68.00
2023-02-09T02:22:24.053Z,65.00
2023-02-09T02:27:58.237Z,63.00
2023-02-09T02:33:07.653Z,64.50
2023-02-09T02:38:20.068Z,60.00
2023-02-09T02:43:44.947Z,67.33
2023-02-09T02:48:59.203Z,70.00
2023-02-09T02:54:07.015Z,69.33
2023-02-09T02:59:13.996Z,48.00
2023-02-09T03:04:18.297Z,65.00
2023-02-09T03:09:21.508Z,59.75
2023-02-09T03:14:38.700Z,61.50
2023-02-09T03:20:16.367Z,64.00
2023-02-09T03:25:28.007Z,56.00
2023-02-09T03:30:33.737Z,58.50
2023-02-09T03:35:40.276Z,59.00
2023-02-09T03:40:43.882Z,54.00
2023-02-09T03:45:47.361Z,58.00
2023-02-09T03:50:50.445Z,56.33
2023-02-09T03:55:53.677Z,60.00
2023-02-09T04:01:07.873Z,65.00
2023-02-09T04:06:11.110Z,69.00
2023-02-09T04:11:14.189Z,68.67
2023-02-09T04:16:18.500Z,60.00
2023-02-09T04:21:22.108Z,69.00
2023-02-09T04:26:26.416Z,79.25
2023-02-09T04:31:29.682Z,70.75
2023-02-09T04:36:32.935Z,62.00
2023-02-09T04:41:36.152Z,62.00
2023-02-09T04:46:39.197Z,50.00
2023-02-09T04:51:42.489Z,44.33
2023-02-09T04:56:45.774Z,51.50
2023-02-09T05:01:49.011Z,53.00
2023-02-09T05:06:52.149Z,46.00
2023-02-09T05:11:55.372Z,50.00
2023-02-09T05:16:58.518Z,42.75
2023-02-09T05:22:01.983Z,47.25
2023-02-09T05:27:05.251Z,49.00
2023-02-09T05:32:08.539Z,47.00
2023-02-09T05:37:11.701Z,54.00
2023-02-09T05:42:17.401Z,64.67
2023-02-09T05:47:22.409Z,61.00
2023-02-09T05:52:25.917Z,66.00
2023-02-09T05:57:29.179Z,61.25
2023-02-09T06:02:32.375Z,66.00
2023-02-09T06:07:35.915Z,63.00
2023-02-09T06:12:41.111Z,71.50
2023-02-09T06:17:44.609Z,69.33
2023-02-09T06:22:47.882Z,68.00
2023-02-09T06:27:51.127Z,73.00
2023-02-09T06:32:54.362Z,75.67
2023-02-09T06:37:58.301Z,73.00
2023-02-09T06:43:01.570Z,81.50
2023-02-09T06:48:05.900Z,76.33
2023-02-09T06:53:09.394Z,82.00
2023-02-09T06:58:12.616Z,84.75
2023-02-09T07:03:15.779Z,82.33
2023-02-09T07:08:18.985Z,78.00
2023-02-09T07:13:22.108Z,78.00
2023-02-09T07:18:26.704Z,82.00
2023-02-09T07:23:30.071Z,85.00
2023-02-09T07:28:35.395Z,51.67
2023-02-09T07:33:38.941Z,74.00
2023-02-09T07:38:42.255Z,47.00
2023-02-09T07:43:45.963Z,80.00
2023-02-09T07:48:49.715Z,52.50
2023-02-09T07:53:53.456Z,42.50
2023-02-09T07:58:59.081Z,66.00
2023-02-09T08:04:02.405Z,49.00
2023-02-09T08:09:06.887Z,75.00
2023-02-09T08:14:16.379Z,52.67
2023-02-09T08:19:23.795Z,69.00
2023-02-09T08:24:27.604Z,84.00
2023-02-09T08:29:30.833Z,79.67
2023-02-09T08:34:35.122Z,87.00
2023-02-09T08:39:38.434Z,81.00
2023-02-09T08:44:41.760Z,75.50
2023-02-09T08:49:45.008Z,58.00
2023-02-09T08:54:48.174Z,67.75
2023-02-09T08:59:51.375Z,65.33
2023-02-09T09:04:54.494Z,59.25
2023-02-09T09:09:57.682Z,52.00
2023-02-09T09:15:00.960Z,42.00
2023-02-09T09:20:05.175Z,32.00
2023-02-09T09:25:08.718Z,30.00
2023-02-09T09:30:12.984Z,31.50
2023-02-09T09:35:16.299Z,28.00
2023-02-09T09:40:29.868Z,25.00
2023-02-09T09:45:43.518Z,29.00
2023-02-09T09:50:47.090Z,29.50
2023-02-09T09:55:55.389Z,27.50
2023-02-09T10:00:59.144Z,30.00
2023-02-09T10:06:15.135Z,24.00
2023-02-09T10:11:22.733Z,18.67
2023-02-09T10:16:29.772Z,20.00
2023-02-09T10:21:36.181Z,20.00
2023-02-09T10:26:40.799Z,18.50
2023-02-09T10:31:58.043Z,66.67
2023-02-09T10:37:17.813Z,50.00
2023-02-09T10:42:25.827Z,63.33
2023-02-09T10:47:30.940Z,16.00
2023-02-09T10:52:36.263Z,15.00
2023-02-09T10:57:39.828Z,16.50
2023-02-09T11:02:52.756Z,16.00
2023-02-09T11:08:17.939Z,15.50
2023-02-09T11:13:26.661Z,15.00
2023-02-09T11:18:33.091Z,17.00
2023-02-09T11:23:49.591Z,50.00
2023-02-09T11:29:07.003Z,41.00
2023-02-09T11:34:58.026Z,53.00
2023-02-09T11:40:20.023Z,30.50
2023-02-09T11:45:35.729Z,20.33
2023-02-09T11:50:54.469Z,13.50
2023-02-09T11:56:03.911Z,13.67
2023-02-09T12:01:21.332Z,8.00
2023-02-09T12:06:25.285Z,13.00
2023-02-09T12:11:34.641Z,17.00
2023-02-09T12:16:41.641Z,16.33
2023-02-09T12:21:44.791Z,12.00
2023-02-09T12:26:55.210Z,11.00
2023-02-09T12:32:04.824Z,14.00
2023-02-09T12:37:14.487Z,10.50
2023-02-09T12:42:17.590Z,14.50
2023-02-09T12:47:44.896Z,18.50
2023-02-09T12:53:22.594Z,19.00
2023-02-09T12:58:36.936Z,22.00
2023-02-09T13:04:00.788Z,24.00
2023-02-09T13:09:09.291Z,18.00
2023-02-09T13:14:14.924Z,18.00
2023-02-09T13:19:49.133Z,20.50
2023-02-09T13:25:07.603Z,16.33
2023-02-09T13:30:33.487Z,18.33
2023-02-09T13:36:09.164Z,14.00
2023-02-09T13:41:31.117Z,16.00
2023-02-09T13:46:35.419Z,14.00
2023-02-09T13:51:39.038Z,17.00
2023-02-09T13:56:42.578Z,19.00
2023-02-09T14:01:48.633Z,18.67
2023-02-09T14:07:08.684Z,19.00
2023-02-09T14:12:52.126Z,17.00
2023-02-09T14:17:56.528Z,18.50
2023-02-09T14:23:01.590Z,19.00
2023-02-09T14:28:05.434Z,21.00
2023-02-09T14:33:25.020Z,17.50
2023-02-09T14:38:48.153Z,20.00
2023-02-09T14:44:03.673Z,16.00
2023-02-09T14:49:06.902Z,0.00
2023-02-09T14:54:24.211Z,20.50
2023-02-09T14:59:27.805Z,22.67
2023-02-09T15:04:31.247Z,22.00
2023-02-09T15:09:37.228Z,24.33
2023-02-09T15:14:43.315Z,26.33
2023-02-09T15:19:47.362Z,26.00
2023-02-09T15:24:54.209Z,28.00
2023-02-09T15:30:00.152Z,27.33
2023-02-09T15:35:05.459Z,18.00
2023-02-09T15:40:14.958Z,28.00
2023-02-09T15:45:42.383Z,26.50
2023-02-09T15:50:47.657Z,23.00
2023-02-09T15:55:51.171Z,26.67
2023-02-09T16:00:54.381Z,27.00
2023-02-09T16:06:03.802Z,26.67
2023-02-09T16:11:16.980Z,30.00
2023-02-09T16:16:20.290Z,31.00
2023-02-09T16:21:29.772Z,33.50
2023-02-09T16:26:34.518Z,32.00
2023-02-09T16:31:37.731Z,34.00
2023-02-09T16:36:41.951Z,33.00
2023-02-09T16:41:53.853Z,32.50
2023-02-09T16:46:59.737Z,39.00
2023-02-09T16:52:26.395Z,38.33
2023-02-09T16:57:29.626Z,38.50
2023-02-09T17:02:41.912Z,37.00
2023-02-09T17:07:54.594Z,38.00
2023-02-09T17:13:01.965Z,39.00
2023-02-09T17:18:07.107Z,38.00
2023-02-09T17:23:19.194Z,37.00
2023-02-09T17:28:27.014Z,34.00
2023-02-09T17:33:32.739Z,38.00
2023-02-09T17:38:36.953Z,41.00
2023-02-09T17:43:40.118Z,41.50
2023-02-09T17:48:43.390Z,39.00
2023-02-09T17:53:47.501Z,36.00
2023-02-09T17:58:50.718Z,28.00
2023-02-09T18:03:55.822Z,30.00
2023-02-09T18:08:59.393Z,38.00
2023-02-09T18:14:02.610Z,33.00
2023-02-09T18:19:05.926Z,30.00
2023-02-09T18:24:10.454Z,31.50
2023-02-09T18:29:14.384Z,31.00
2023-02-09T18:34:17.714Z,31.00
2023-02-09T18:39:21.027Z,34.00
2023-02-09T18:44:29.400Z,19.00
2023-02-09T18:49:32.858Z,38.00
2023-02-09T18:54:36.190Z,22.00
2023-02-09T18:59:40.612Z,32.00
2023-02-09T19:04:44.138Z,34.00
2023-02-09T19:09:47.347Z,31.00
2023-02-09T19:14:52.468Z,38.00
2023-02-09T19:19:58.268Z,38.00
2023-02-09T19:25:01.577Z,34.00
2023-02-09T19:30:05.611Z,35.00
2023-02-09T19:35:09.329Z,37.00
2023-02-09T19:40:21.363Z,35.00
2023-02-09T19:45:24.667Z,35.00
2023-02-09T19:50:27.933Z,35.50
2023-02-09T19:55:31.384Z,34.00
2023-02-09T20:00:35.001Z,32.33
2023-02-09T20:05:41.463Z,29.00
2023-02-09T20:10:45.649Z,34.00
2023-02-09T20:15:49.569Z,27.00
2023-02-09T20:20:53.266Z,30.50
2023-02-09T20:25:56.374Z,24.00
2023-02-09T20:30:59.600Z,33.00
2023-02-09T20:36:08.719Z,15.00
2023-02-09T20:41:15.409Z,32.00
2023-02-09T20:46:39.646Z,31.00
2023-02-09T20:51:44.231Z,31.50
2023-02-09T20:56:47.516Z,21.00
2023-02-09T21:01:51.113Z,21.67
2023-02-09T21:06:54.524Z,18.00
2023-02-09T21:11:58.063Z,15.00
2023-02-09T21:17:04.644Z,24.33
2023-02-09T21:22:08.252Z,0.00
2023-02-09T21:27:11.865Z,15.00
2023-02-09T21:32:15.384Z,19.00
2023-02-09T21:37:18.612Z,19.00
2023-02-09T21:42:28.884Z,10.00
2023-02-09T21:47:35.759Z,12.00
2023-02-09T21:52:40.341Z,13.00
2023-02-09T21:57:43.617Z,19.00
2023-02-09T22:02:46.829Z,15.00
2023-02-09T22:07:50.237Z,19.00
2023-02-09T22:12:53.575Z,16.67
2023-02-09T22:17:57.324Z,31.33
2023-02-09T22:23:00.512Z,18.00
2023-02-09T22:28:04.799Z,31.50
2023-02-09T22:33:08.236Z,18.50
2023-02-09T22:38:11.612Z,15.00
2023-02-09T22:43:14.900Z,26.00
2023-02-09T22:48:18.374Z,16.00
2023-02-09T22:53:22.517Z,12.50
2023-02-09T22:58:25.729Z,18.00
2023-02-09T23:03:30.905Z,19.00
2023-02-09T23:08:35.233Z,19.00
2023-02-09T23:13:38.862Z,30.33
2023-02-09T23:18:50.412Z,29.00
2023-02-09T23:23:53.794Z,31.00
2023-02-09T23:28:59.338Z,28.00
2023-02-09T23:34:02.971Z,24.50
2023-02-09T23:39:07.181Z,26.00
2023-02-09T23:44:11.109Z,39.00
2023-02-09T23:49:14.427Z,25.00
2023-02-09T23:54:17.737Z,39.00
2023-02-09T23:59:21.054Z,39.00
